Latest Weather Observations for Richmond

IDQ60801

Issued at 11:35 pm EST Wednesday 16 April 2014 (issued every 30 minutes, with the page automatically refreshed every 10 minutes)

About weather observations | Map of weather stations | Latest weather observations for QLD | Other Formats
Station Details ID: 030161 Name: RICHMOND AIRPORT Lat: -20.70 Lon: 143.12 Height: 206.3 m
Data from the previous 72 hours. | See also: Recent months at Richmond
Date/Time
EST
Temp
°C
App
Temp
°C
Dew
Point
Rel
Hum
%
Delta-T
°C
Wind Press
QNH
hPa
Press
MSL
hPa
Rain
since 9 am
mm
Dir
 
Spd
km/h
Gust
km/h
Spd
kts
Gust
kts
16/11:30pm 24.3 28.5 21.8 86 1.7 NNW 2 7 1 4 1014.4 - 11.8
16/11:00pm 24.4 27.7 20.7 80 2.4 WNW 4 6 2 3 1014.3 - 11.8
16/10:30pm 24.2 27.0 20.9 82 2.2 NW 7 9 4 5 1014.4 - 11.8
16/10:00pm 24.1 25.6 20.6 81 2.3 WNW 13 17 7 9 1014.5 - 11.8
16/09:30pm 24.2 25.3 20.5 80 2.4 E 15 19 8 10 1014.0 - 11.8
16/09:00pm 24.2 25.6 21.1 83 2.1 SE 15 19 8 10 1013.7 1012.5 11.8
16/08:30pm 24.7 26.7 21.6 83 2.1 E 13 20 7 11 1013.4 - 11.8
16/08:00pm 24.4 27.1 22.1 87 1.5 E 11 15 6 8 1013.1 - 11.8
16/07:30pm 23.4 25.0 21.5 89 1.3 E 15 17 8 9 1013.0 - 11.8
16/07:00pm 23.5 27.4 21.2 87 1.5 NW 2 7 1 4 1013.1 - 11.4
16/06:30pm 23.5 23.6 20.0 81 2.3 WSW 19 35 10 19 1013.0 - 7.6
16/06:20pm 26.5 25.6 19.1 64 4.8 SSW 22 33 12 18 1012.4 - 0.4
16/06:00pm 31.6 31.6 15.1 36 10.3 NE 9 13 5 7 1011.5 1010.3 0.0
16/05:30pm 32.4 30.8 15.0 35 10.8 NNE 17 20 9 11 1010.9 - 0.0
16/05:00pm 32.4 30.6 14.5 33 11.1 NNE 17 20 9 11 1010.7 - 0.0
16/04:30pm 32.8 31.7 14.4 33 11.4 N 13 20 7 11 1010.6 - 0.0
16/04:00pm 33.3 33.5 14.8 32 11.5 N 7 19 4 10 1010.6 - 0.0
16/03:30pm 33.6 33.6 14.1 30 12.0 NE 7 17 4 9 1010.8 - 0.0
16/03:00pm 34.4 33.7 15.3 31 12.0 NE 13 24 7 13 1011.1 1009.9 0.0
16/02:30pm 33.8 33.1 15.3 33 11.6 NNE 13 26 7 14 1011.5 - 0.0
16/02:00pm 33.2 31.7 15.2 33 11.3 NNE 17 24 9 13 1011.9 - 0.0
16/01:30pm 32.3 32.4 16.6 39 10.0 N 11 19 6 10 1012.4 - 0.0
16/01:00pm 31.9 33.0 17.0 41 9.5 N 7 19 4 10 1012.8 - 0.0
16/12:30pm 31.9 33.0 18.1 43 9.0 N 9 20 5 11 1013.2 - 0.0
16/12:00pm 30.1 31.2 17.9 48 7.9 N 9 22 5 12 1013.9 1012.7 0.0
16/11:30am 29.0 29.0 18.1 51 7.0 N 15 20 8 11 1014.4 - 0.0
16/11:00am 29.4 29.6 18.5 52 7.1 N 15 22 8 12 1014.8 - 0.0
16/10:30am 28.8 28.4 18.0 52 6.9 NNE 17 24 9 13 1014.8 - 0.0
16/10:00am 28.5 28.7 17.7 52 6.9 NNE 13 20 7 11 1015.0 - 0.0
16/09:30am 27.0 27.6 17.8 57 5.9 NE 11 24 6 13 1015.2 - 0.0
16/09:00am 25.9 25.6 17.3 59 5.4 NE 15 20 8 11 1015.2 1014.0 0.0
16/08:30am 25.3 25.4 17.5 62 4.9 ENE 13 20 7 11 1014.9 - 0.0
16/08:00am 24.6 24.6 17.3 64 4.6 ENE 13 20 7 11 1014.4 - 0.0
16/07:30am 24.2 23.5 17.4 65 4.3 E 17 22 9 12 1014.1 - 0.0
16/07:00am 23.8 23.1 17.3 67 4.1 E 17 20 9 11 1013.8 - 0.0
16/06:30am 23.5 22.4 17.3 68 3.9 E 19 24 10 13 1013.3 - 0.0
16/06:00am 23.4 21.7 17.2 68 3.9 E 22 28 12 15 1012.9 1011.7 0.0
16/05:30am 23.6 21.9 17.1 67 4.0 E 22 30 12 16 1012.9 - 0.0
16/05:00am 23.8 21.7 17.1 66 4.2 E 24 32 13 17 1012.4 - 0.0
16/04:30am 24.0 22.0 17.3 66 4.2 ESE 24 33 13 18 1012.3 - 0.0
16/04:00am 24.3 23.0 17.3 65 4.4 ESE 20 28 11 15 1012.3 - 0.0
16/03:30am 24.2 22.5 17.2 65 4.4 ESE 22 30 12 16 1012.1 - 0.0
16/03:00am 24.2 21.4 17.2 65 4.4 ESE 28 35 15 19 1012.1 1010.9 0.0
16/02:30am 24.3 21.4 17.1 64 4.5 SE 28 35 15 19 1012.3 - 0.0
16/02:00am 24.2 21.3 17.0 64 4.5 SE 28 37 15 20 1012.6 - 0.0
16/01:30am 24.5 22.0 17.2 63 4.6 SE 26 35 14 19 1012.8 - 0.0
16/01:00am 24.7 23.6 17.7 65 4.4 SE 20 30 11 16 1013.0 - 0.0
16/12:30am 24.6 21.9 17.6 65 4.4 SSE 28 35 15 19 1012.8 - 0.0
16/12:00am 25.5 23.4 17.2 60 5.2 SSE 24 32 13 17 1012.5 1011.3 0.0
 
Date/Time
EST
Temp
°C
App
Temp
°C
Dew
Point
Rel
Hum
%
Delta-T
°C
Wind Press
QNH
hPa
Press
MSL
hPa
Rain
since 9 am
mm
Dir
 
Spd
km/h
Gust
km/h
Spd
kts
Gust
kts
15/11:30pm 26.0 24.6 17.1 58 5.6 SSE 20 26 11 14 1012.9 - 0.0
15/11:00pm 26.0 24.7 16.8 57 5.7 SSE 19 24 10 13 1013.0 - 0.0
15/10:30pm 26.5 24.2 16.7 55 6.1 S 24 33 13 18 1012.9 - 0.0
15/10:00pm 26.1 23.1 16.9 57 5.8 S 28 39 15 21 1013.0 - 0.0
15/09:30pm 27.9 24.5 15.9 48 7.4 SW 28 41 15 22 1012.8 - 0.0
15/09:00pm 28.4 29.5 14.6 43 8.4 ENE 2 9 1 5 1012.3 1011.1 0.0
15/08:30pm 29.1 28.6 14.9 42 8.7 N 11 17 6 9 1011.8 - 0.0
15/08:00pm 29.4 28.9 14.8 41 9.0 N 11 15 6 8 1011.4 - 0.0
15/07:30pm 30.4 29.1 14.9 39 9.6 N 15 20 8 11 1011.0 - 0.0
15/07:00pm 31.7 30.7 13.5 33 11.0 NE 11 19 6 10 1010.5 - 0.0
15/06:30pm 32.6 32.0 12.3 29 12.1 ESE 7 9 4 5 1010.0 - 0.0
15/06:00pm 33.2 32.2 12.2 28 12.6 SE 9 13 5 7 1009.7 1008.4 0.0
15/05:30pm 34.1 31.6 12.4 26 13.1 SE 17 24 9 13 1009.4 - 0.0
15/05:00pm 35.0 32.6 12.6 26 13.6 SE 17 22 9 12 1009.3 - 0.0
15/04:30pm 35.6 33.9 12.5 24 14.0 SSE 13 26 7 14 1009.2 - 0.0
15/04:00pm 34.8 34.1 11.9 25 13.7 SSW 7 15 4 8 1009.3 - 0.0
15/03:30pm 34.8 34.8 12.5 26 13.5 NE 4 13 2 7 1009.4 - 0.0
15/03:00pm 34.4 33.9 12.1 26 13.4 S 6 13 3 7 1009.7 1008.4 0.0
15/02:30pm 34.6 32.1 12.3 26 13.4 SE 17 24 9 13 1009.9 - 0.0
15/02:00pm 34.4 34.1 13.3 28 12.9 ENE 7 13 4 7 1010.3 - 0.0
15/01:30pm 36.0 36.0 13.5 26 13.9 SW 6 9 3 5 1010.6 - 0.0
15/01:00pm 34.4 35.1 13.3 28 12.9 SSE 2 9 1 5 1010.9 - 0.0
15/12:30pm 34.0 31.3 13.5 29 12.5 E 20 30 11 16 1011.4 - 0.0
15/12:00pm 33.8 32.5 13.8 30 12.3 NNE 13 24 7 13 1012.0 1010.8 0.0
15/11:30am 32.7 31.1 13.8 31 11.6 E 15 26 8 14 1012.4 - 0.0
15/11:00am 32.3 29.4 14.0 33 11.2 NE 22 35 12 19 1012.7 - 0.0
15/10:30am 32.2 30.1 15.2 35 10.6 NNE 20 28 11 15 1012.8 - 0.0
15/10:00am 31.6 30.9 16.3 39 9.7 ENE 15 22 8 12 1012.9 - 0.0
15/09:30am 30.7 29.1 15.9 40 9.3 NNE 19 28 10 15 1013.1 - 0.0
15/09:00am 30.1 28.7 16.5 44 8.6 NE 19 24 10 13 1013.0 1011.8 0.0
15/08:30am 27.7 28.7 16.3 49 7.1 ESE 6 9 3 5 1012.9 - 0.0
15/08:00am 25.7 26.5 16.3 56 5.8 E 7 11 4 6 1012.5 - 0.0
15/07:30am 25.1 24.6 16.0 57 5.6 ESE 13 19 7 10 1012.2 - 0.0
15/07:00am 24.2 24.1 15.9 59 5.1 ESE 11 15 6 8 1012.2 - 0.0
15/06:30am 23.5 23.5 15.3 60 5.0 ESE 9 13 5 7 1012.0 - 0.0
15/06:00am 23.9 23.9 15.1 58 5.3 ESE 9 13 5 7 1011.8 1010.6 0.0
15/05:30am 24.4 23.6 15.1 56 5.6 SE 13 15 7 8 1011.4 - 0.0
15/05:00am 25.0 24.3 15.3 55 5.9 SE 13 15 7 8 1011.1 - 0.0
15/04:30am 24.8 23.9 14.9 54 6.0 SSE 13 15 7 8 1010.9 - 0.0
15/04:00am 25.0 24.8 14.8 53 6.2 SSE 9 11 5 6 1010.7 - 0.0
15/03:30am 25.4 24.4 14.5 51 6.6 S 13 17 7 9 1010.8 - 0.0
15/03:00am 26.8 27.4 15.8 51 6.8 ESE 7 7 4 4 1010.6 1009.4 0.0
15/02:30am 27.4 28.1 16.1 50 7.0 E 7 11 4 6 1010.5 - 0.0
15/02:00am 27.8 27.6 15.8 48 7.4 ENE 11 17 6 9 1010.5 - 0.0
15/01:30am 28.2 27.5 15.5 46 7.8 E 13 19 7 10 1010.6 - 0.0
15/01:00am 28.2 26.9 14.8 44 8.2 E 15 20 8 11 1010.6 - 0.0
15/12:30am 28.3 26.7 14.9 44 8.2 E 17 24 9 13 1010.6 - 0.0
15/12:00am 27.9 26.9 14.5 44 8.1 ENE 13 19 7 10 1010.9 1009.7 0.0
 
Date/Time
EST
Temp
°C
App
Temp
°C
Dew
Point
Rel
Hum
%
Delta-T
°C
Wind Press
QNH
hPa
Press
MSL
hPa
Rain
since 9 am
mm
Dir
 
Spd
km/h
Gust
km/h
Spd
kts
Gust
kts
14/11:30pm 27.3 25.7 14.0 44 8.0 E 15 20 8 11 1011.0 - 0.0
14/11:00pm 27.4 26.1 13.7 43 8.2 E 13 17 7 9 1011.1 - 0.0
14/10:30pm 27.6 25.9 13.5 41 8.4 E 15 17 8 9 1011.2 - 0.0
14/10:00pm 28.5 26.4 13.6 40 8.9 ESE 17 20 9 11 1011.3 - 0.0
14/09:30pm 29.1 26.5 13.3 37 9.5 ESE 19 22 10 12 1011.1 - 0.0
14/09:00pm 29.9 26.7 13.2 36 10.0 ESE 22 28 12 15 1010.8 1009.6 0.0
14/08:30pm 30.1 27.3 12.5 34 10.4 ESE 19 24 10 13 1010.5 - 0.0
14/08:00pm 30.2 27.8 12.6 34 10.5 ESE 17 20 9 11 1009.8 - 0.0
14/07:30pm 30.7 28.3 12.6 33 10.8 SE 17 20 9 11 1009.2 - 0.0
14/07:00pm 31.4 29.0 12.7 32 11.2 SE 17 20 9 11 1008.8 - 0.0
14/06:30pm 31.3 29.7 11.7 30 11.5 SE 11 13 6 7 1008.4 - 0.0
14/06:00pm 33.3 31.4 11.8 27 12.8 SE 13 17 7 9 1008.2 1007.0 0.0
14/05:30pm 34.4 32.0 11.5 25 13.6 SSE 15 20 8 11 1008.0 - 0.0
14/05:00pm 34.1 32.0 12.4 26 13.1 SE 15 26 8 14 1007.7 - 0.0
14/04:30pm 34.6 32.7 11.7 25 13.7 SSE 13 20 7 11 1007.6 - 0.0
14/04:00pm 35.2 32.3 12.8 26 13.6 SE 20 28 11 15 1007.6 - 0.0
14/03:30pm 34.7 32.6 12.4 26 13.5 E 15 35 8 19 1007.7 - 0.0
14/03:00pm 34.8 33.7 13.0 26 13.3 E 11 24 6 13 1007.9 1006.7 0.0
14/02:30pm 34.7 33.9 14.0 28 12.8 ESE 11 24 6 13 1008.1 - 0.0
14/02:00pm 34.2 33.4 14.1 29 12.4 ENE 11 28 6 15 1008.4 - 0.0
14/01:30pm 33.5 32.7 15.0 32 11.5 ESE 13 22 7 12 1008.7 - 0.0
14/01:00pm 33.2 32.1 15.2 33 11.3 SE 15 26 8 14 1009.1 - 0.0
14/12:30pm 33.1 33.6 16.5 37 10.6 ESE 9 22 5 12 1009.7 - 0.0
14/12:00pm 31.6 30.9 15.5 37 10.1 E 13 20 7 11 1010.4 1009.2 0.0
14/11:30am 30.7 30.3 16.3 42 9.1 E 13 20 7 11 1010.8 - 0.0
14/11:00am 30.7 30.2 17.0 43 8.7 E 15 24 8 13 1011.1 - 0.0
14/10:30am 29.5 28.8 17.3 47 7.8 E 17 32 9 17 1011.2 - 0.0
14/10:00am 28.7 28.4 18.2 53 6.8 E 17 22 9 12 1011.4 - 0.0
14/09:30am 27.5 27.0 17.7 55 6.2 E 17 26 9 14 1011.5 - 0.0
14/09:00am 26.7 25.2 17.7 57 5.7 E 22 30 12 16 1011.2 1010.0 0.2
14/08:30am 25.6 25.4 18.5 65 4.5 ENE 17 28 9 15 1011.0 - 0.2
14/08:00am 24.1 25.0 19.2 74 3.2 E 13 19 7 10 1010.9 - 0.2
14/07:30am 22.8 23.2 19.0 79 2.4 E 15 19 8 10 1010.4 - 0.2
14/07:00am 22.0 21.6 18.8 82 2.0 E 19 24 10 13 1010.2 - 0.2
14/06:30am 22.0 21.6 18.8 82 2.0 E 19 24 10 13 1009.8 - 0.2
14/06:00am 22.4 21.9 19.0 81 2.2 E 20 26 11 14 1009.4 1008.2 0.2
14/05:30am 22.8 21.5 19.0 79 2.4 ESE 24 32 13 17 1009.1 - 0.2
14/05:00am 23.0 22.5 19.2 79 2.4 SE 20 24 11 13 1009.2 - 0.2
14/04:30am 22.7 24.2 18.9 79 2.4 SE 9 13 5 7 1008.8 - 0.2
14/04:00am 23.2 24.4 19.1 78 2.6 ESE 11 13 6 7 1008.4 - 0.2
14/03:30am 23.6 24.5 19.3 77 2.8 E 13 19 7 10 1008.2 - 0.2
14/03:00am 24.1 24.6 19.2 74 3.2 ESE 15 17 8 9 1008.5 1007.3 0.2
14/02:30am 24.6 24.8 19.4 73 3.4 E 17 22 9 12 1008.5 - 0.2
14/02:00am 24.9 24.9 19.7 73 3.4 ESE 19 24 10 13 1008.6 - 0.2
14/01:30am 25.1 26.0 20.1 74 3.3 E 15 20 8 11 1008.6 - 0.2
14/01:00am 25.0 25.5 20.0 74 3.3 E 17 20 9 11 1008.8 - 0.2
14/12:30am 25.2 25.1 20.0 73 3.4 E 20 26 11 14 1009.0 - 0.2
14/12:00am 25.8 25.4 20.1 71 3.7 ESE 22 30 12 16 1009.4 1008.2 0.2

Other Formats:

Comma delimited format used in spreadsheet applications
http://www.bom.gov.au/fwo/IDQ60801/IDQ60801.94341.axf

JavaScript Object Notation format (JSON) in row-major order
http://www.bom.gov.au/fwo/IDQ60801/IDQ60801.94341.json